Time;durP1;ratioP1;P1;durP2;ratioP2;P2;SDS_P1;SDS_P2;PMS_P1;PMS_P2;Temp;Humidity;BMP_temperature;BMP_pressure;BME280_temperature;BME280_humidity;BME280_pressure;Samples;Min_cycle;Max_cycle;Signal;HPM_P1;HPM_P2
2021/12/10 00:00:48;;;;;;;;;;;4.50;99.90;;;4.96;100.00;99196.00;4872677;29;19955;-76
2021/12/10 00:03:23;;;;;;;;;;;4.40;99.90;;;4.87;100.00;99190.13;4871875;29;19935;-76
2021/12/10 00:05:57;;;;;;;;;;;4.40;99.90;;;4.73;100.00;99195.63;4857191;29;20349;-76
2021/12/10 00:08:27;;;;;;;;;;;4.40;99.90;;;4.68;100.00;99191.34;4871858;29;19927;-76
2021/12/10 00:10:56;;;;;;;;;;;4.30;99.90;;;4.72;100.00;99189.53;4872262;29;19928;-76
2021/12/10 00:13:24;;;;;;;;;;;4.30;99.90;;;4.79;100.00;99167.69;4871477;29;19928;-76
2021/12/10 00:15:54;;;;;;;;;;;4.60;99.90;;;4.81;100.00;99165.03;4872432;29;19928;-75
2021/12/10 00:18:25;;;;;;;;;;;4.20;99.90;;;4.70;100.00;99177.44;4871786;29;19924;-76
2021/12/10 00:20:58;;;;;;;;;;;4.60;99.90;;;4.62;100.00;99174.97;4857242;29;19959;-76
2021/12/10 00:23:28;;;;;;;;;;;4.20;99.90;;;4.52;100.00;99167.31;4871687;29;19928;-76
2021/12/10 00:25:56;;;;;;;;;;;4.10;99.90;;;4.50;100.00;99153.47;4872527;29;19939;-76
2021/12/10 00:28:27;;;;;;;;;;;4.90;99.90;;;4.50;100.00;99152.59;4872120;29;19928;-76
2021/12/10 00:31:47;;;;;;;;;;;6.50;99.90;;;4.47;100.00;99161.34;4856486;29;19962;-76
2021/12/10 00:34:07;;;;;;;;;;;3.70;99.90;;;4.48;100.00;99149.16;4880378;29;20354;-76
2021/12/10 00:36:36;;;;;;;;;;;3.90;99.90;;;4.48;100.00;99138.75;4895403;29;19927;-76
2021/12/10 00:39:10;;;;;;;;;;;4.00;99.90;;;4.43;100.00;99137.97;4893884;29;19935;-76
2021/12/10 00:41:37;;;;;;;;;;;4.60;99.90;;;4.34;100.00;99124.22;4895460;29;19927;-76
2021/12/10 00:44:05;;;;;;;;;;;3.90;99.90;;;4.36;100.00;99126.81;4878849;29;19923;-76
2021/12/10 00:46:32;;;;;;;;;;;3.90;99.90;;;4.23;100.00;99124.44;4893996;29;19929;-76
2021/12/10 00:48:59;;;;;;;;;;;5.50;99.90;;;4.23;100.00;99124.44;4878092;29;19977;-76
2021/12/10 00:51:26;;;;;;;;;;;4.20;99.90;;;4.21;100.00;99118.41;4893896;29;19931;-76
2021/12/10 00:53:53;;;;;;;;;;;3.80;99.90;;;4.23;100.00;99114.03;4892603;29;19934;-77
2021/12/10 00:56:20;;;;;;;;;;;4.80;99.90;;;4.23;100.00;99116.63;4893531;29;20576;-76
2021/12/10 00:58:47;;;;;;;;;;;3.90;99.90;;;4.18;100.00;99113.25;4893266;29;19934;-75
2021/12/10 01:01:18;;;;;;;;;;;5.80;99.90;;;4.21;100.00;99107.13;4893440;29;19928;-75
2021/12/10 01:03:53;;;;;;;;;;;3.60;99.90;;;4.21;100.00;99105.38;4877243;29;20423;-76
2021/12/10 01:06:21;;;;;;;;;;;3.80;99.90;;;4.14;100.00;99090.78;4893060;29;19927;-76
2021/12/10 01:08:51;;;;;;;;;;;3.60;99.90;;;4.13;100.00;99088.19;4892492;29;19934;-75
2021/12/10 01:11:29;;;;;;;;;;;4.20;99.90;;;4.01;100.00;99090.09;4878312;29;20281;-75
2021/12/10 01:14:09;;;;;;;;;;;3.50;99.90;;;3.98;100.00;99082.38;4878013;29;19932;-76
2021/12/10 01:25:39;;;;;;;;;;;3.10;99.90;;;3.57;100.00;99052.69;4892718;29;20052;-76
2021/12/10 01:28:08;;;;;;;;;;;3.20;99.90;;;3.45;100.00;99043.34;4892956;29;19927;-75
2021/12/10 01:30:39;;;;;;;;;;;3.10;99.90;;;3.43;100.00;99042.53;4892805;29;19931;-75
2021/12/10 01:33:13;;;;;;;;;;;3.10;99.90;;;3.24;100.00;99035.03;4892035;29;19924;-76
2021/12/10 01:35:44;;;;;;;;;;;4.80;99.90;;;3.24;100.00;99035.88;4892732;29;20404;-75
2021/12/10 01:38:12;;;;;;;;;;;3.60;99.90;;;3.10;100.00;99030.03;4892615;29;20305;-76
2021/12/10 01:40:44;;;;;;;;;;;2.90;99.90;;;3.10;100.00;99025.69;4875519;29;19933;-76
2021/12/10 01:43:23;;;;;;;;;;;3.30;99.90;;;2.89;100.00;99013.00;4885976;29;20030;-76
2021/12/10 01:46:05;;;;;;;;;;;2.70;99.90;;;2.75;100.00;99015.81;4874180;29;19940;-76
2021/12/10 01:48:46;;;;;;;;;;;3.70;99.90;;;2.68;100.00;99017.63;4888012;29;20305;-75
2021/12/10 01:51:19;;;;;;;;;;;2.50;99.90;;;2.81;100.00;99016.56;4873813;29;20792;-76
2021/12/10 01:53:48;;;;;;;;;;;2.30;99.90;;;2.77;100.00;99007.13;4888270;29;19932;-75
2021/12/10 01:56:36;;;;;;;;;;;2.40;99.90;;;2.77;100.00;99007.13;4874849;29;19934;-76
2021/12/10 01:59:05;;;;;;;;;;;4.50;99.90;;;2.80;100.00;99004.47;4873258;29;19930;-76
2021/12/10 02:01:41;;;;;;;;;;;2.40;99.90;;;2.93;100.00;98999.09;4888940;29;19927;-75
2021/12/10 02:04:13;;;;;;;;;;;2.40;99.90;;;2.79;100.00;98992.38;4888059;29;19927;-77
2021/12/10 02:06:40;;;;;;;;;;;2.30;99.90;;;2.71;100.00;98994.19;4874441;29;19924;-77
2021/12/10 02:09:09;;;;;;;;;;;2.40;99.90;;;2.72;100.00;98985.53;4858641;29;19924;-77
2021/12/10 02:11:36;;;;;;;;;;;2.30;99.90;;;2.74;100.00;98970.81;4889111;29;19931;-77
2021/12/10 02:14:04;;;;;;;;;;;2.40;99.90;;;2.71;100.00;98967.38;4872572;29;19924;-77
2021/12/10 02:16:31;;;;;;;;;;;4.20;99.90;;;2.69;100.00;98951.81;4874053;29;19934;-77
2021/12/10 02:18:58;;;;;;;;;;;2.30;99.90;;;2.63;100.00;98944.97;4872279;29;19928;-76
2021/12/10 02:21:27;;;;;;;;;;;2.30;99.90;;;2.55;100.00;98941.63;4873087;29;20725;-76
2021/12/10 02:23:57;;;;;;;;;;;4.60;99.90;;;2.50;100.00;98933.91;4872083;29;19975;-76
2021/12/10 02:26:35;;;;;;;;;;;2.20;99.90;;;2.41;100.00;98931.41;4858126;29;19923;-76
2021/12/10 02:29:04;;;;;;;;;;;3.10;99.90;;;2.36;100.00;98926.31;4888977;29;19927;-77
2021/12/10 02:31:31;;;;;;;;;;;2.00;99.90;;;2.25;100.00;98923.00;4897501;29;19943;-76
2021/12/10 02:33:58;;;;;;;;;;;2.20;99.90;;;2.47;100.00;98931.34;4891898;29;19927;-77
2021/12/10 02:36:25;;;;;;;;;;;2.00;99.90;;;2.48;100.00;98917.50;4892842;29;19927;-75
2021/12/10 02:38:53;;;;;;;;;;;2.10;99.90;;;2.50;100.00;98920.06;4892648;29;19975;-77
2021/12/10 02:41:23;;;;;;;;;;;2.00;99.90;;;2.49;100.00;98914.00;4892816;29;20429;-77
2021/12/10 02:43:51;;;;;;;;;;;2.30;99.90;;;2.44;100.00;98905.44;4875892;29;20294;-76
2021/12/10 02:46:18;;;;;;;;;;;2.70;99.90;;;2.39;100.00;98900.31;4892005;29;20309;-77
2021/12/10 02:48:45;;;;;;;;;;;1.90;99.90;;;2.53;100.00;98901.84;4876713;29;19971;-76
2021/12/10 02:51:12;;;;;;;;;;;1.80;99.90;;;2.60;100.00;98893.06;4892880;29;20352;-77
2021/12/10 02:53:43;;;;;;;;;;;2.00;99.90;;;2.58;100.00;98899.19;4875826;29;19923;-77
2021/12/10 02:56:17;;;;;;;;;;;2.20;99.90;;;2.65;100.00;98893.00;4892562;29;19927;-77
2021/12/10 02:58:46;;;;;;;;;;;1.00;99.90;;;2.67;100.00;98896.44;4876532;29;20392;-75
2021/12/10 03:01:19;;;;;;;;;;;2.10;99.90;;;2.69;100.00;98889.47;4876370;29;19927;-75
2021/12/10 03:03:47;;;;;;;;;;;2.10;99.90;;;2.64;100.00;98889.53;4891153;29;19930;-76
2021/12/10 03:06:16;;;;;;;;;;;1.90;99.90;;;2.54;100.00;98882.78;4876353;29;20315;-76
2021/12/10 03:08:47;;;;;;;;;;;4.30;99.90;;;2.53;100.00;98870.69;4891550;29;19927;-75
2021/12/10 03:11:17;;;;;;;;;;;2.60;99.90;;;2.53;100.00;98855.13;4891149;29;19930;-75
2021/12/10 03:13:44;;;;;;;;;;;3.40;99.90;;;2.50;100.00;98839.59;4871491;29;20419;-76
2021/12/10 03:16:11;;;;;;;;;;;2.00;99.90;;;2.46;100.00;98828.38;4873343;29;19924;-76
2021/12/10 03:18:38;;;;;;;;;;;2.00;99.90;;;2.47;100.00;98824.03;4874484;29;20019;-77
2021/12/10 03:21:09;;;;;;;;;;;2.00;99.90;;;2.45;100.00;98811.09;4858947;29;19927;-77
2021/12/10 03:23:42;;;;;;;;;;;2.00;99.90;;;2.39;100.00;98793.88;4875126;29;19928;-78
2021/12/10 03:26:17;;;;;;;;;;;3.60;99.90;;;2.40;100.00;98792.13;4879061;29;19974;-78
2021/12/10 03:28:45;;;;;;;;;;;1.80;99.90;;;2.40;100.00;98784.34;4877689;29;19991;-77
2021/12/10 03:31:13;;;;;;;;;;;2.80;99.90;;;2.44;100.00;98786.03;4880129;29;19927;-78
2021/12/10 03:33:41;;;;;;;;;;;1.90;99.90;;;2.38;100.00;98767.94;4880165;29;20196;-77
2021/12/10 03:36:09;;;;;;;;;;;1.90;99.90;;;2.26;100.00;98767.25;4881004;29;20041;-77
2021/12/10 03:38:39;;;;;;;;;;;1.80;99.90;;;2.31;100.00;98772.34;4880950;29;19995;-77
2021/12/10 03:41:09;;;;;;;;;;;1.90;99.90;;;2.32;100.00;98758.50;4881234;29;19979;-77
2021/12/10 03:43:37;;;;;;;;;;;1.80;99.90;;;2.43;100.00;98770.44;4879798;29;19924;-79
2021/12/10 03:46:06;;;;;;;;;;;3.60;99.90;;;2.34;100.00;98763.69;4881388;29;19930;-78
2021/12/10 03:48:36;;;;;;;;;;;2.60;99.90;;;2.28;100.00;98759.44;4846243;29;19928;-78
2021/12/10 03:51:06;;;;;;;;;;;4.60;99.90;;;2.28;100.00;98750.81;4862662;29;19928;-78
2021/12/10 03:53:34;;;;;;;;;;;1.50;99.90;;;2.30;100.00;98754.22;4882277;29;19928;-78
2021/12/10 03:56:07;;;;;;;;;;;1.70;99.90;;;2.29;100.00;98753.34;4861084;29;19947;-76
2021/12/10 03:58:34;;;;;;;;;;;1.70;99.90;;;2.21;100.00;98748.28;4876252;29;19928;-77
2021/12/10 04:01:05;;;;;;;;;;;1.70;99.90;;;2.11;100.00;98751.94;4892800;29;19980;-76
2021/12/10 04:03:33;;;;;;;;;;;3.70;99.90;;;2.11;100.00;98746.75;4891251;29;19928;-78
2021/12/10 04:06:00;;;;;;;;;;;1.90;99.90;;;2.10;100.00;98745.88;4876330;29;19935;-78
2021/12/10 04:08:28;;;;;;;;;;;1.40;99.90;;;2.16;100.00;98746.66;4875760;29;19932;-77
2021/12/10 04:10:55;;;;;;;;;;;4.20;99.90;;;2.07;100.00;98756.31;4876660;29;20542;-79
2021/12/10 04:13:23;;;;;;;;;;;1.60;99.90;;;2.02;100.00;98750.31;4872987;29;19935;-77
2021/12/10 04:15:50;;;;;;;;;;;3.00;99.90;;;1.88;100.00;98740.16;4857980;29;20310;-76
2021/12/10 04:18:18;;;;;;;;;;;1.50;99.90;;;1.92;100.00;98739.22;4872540;29;19931;-77
2021/12/10 04:20:45;;;;;;;;;;;1.50;99.90;;;1.80;100.00;98729.06;4872923;29;19927;-77
2021/12/10 04:23:14;;;;;;;;;;;4.10;99.90;;;1.78;100.00;98721.28;4884420;29;19964;-76
2021/12/10 04:25:42;;;;;;;;;;;2.90;99.90;;;1.85;100.00;98722.03;4894344;29;20437;-77
2021/12/10 04:28:14;;;;;;;;;;;1.50;99.90;;;1.81;100.00;98715.19;4894300;29;19927;-78
2021/12/10 04:30:45;;;;;;;;;;;2.40;99.90;;;1.77;100.00;98716.09;4899144;29;19931;-78
2021/12/10 04:33:18;;;;;;;;;;;1.40;99.90;;;1.83;100.00;98709.09;4882570;29;19927;-77
2021/12/10 04:35:49;;;;;;;;;;;1.40;99.90;;;1.83;100.00;98716.03;4898839;29;19928;-78
2021/12/10 04:38:17;;;;;;;;;;;1.40;99.90;;;1.66;100.00;98696.41;4897839;29;19927;-78
2021/12/10 04:40:47;;;;;;;;;;;3.20;99.90;;;1.77;100.00;98697.94;4883206;29;20005;-77
2021/12/10 04:43:20;;;;;;;;;;;1.20;99.90;;;1.83;100.00;98687.50;4881181;29;19938;-77
2021/12/10 04:45:47;;;;;;;;;;;1.50;99.90;;;1.84;100.00;98677.09;4878993;29;20320;-75
2021/12/10 04:48:14;;;;;;;;;;;1.30;99.90;;;1.84;100.00;98676.25;4893263;29;19934;-75
2021/12/10 04:50:41;;;;;;;;;;;1.40;99.90;;;1.75;100.00;98671.19;4893358;29;19927;-75
2021/12/10 04:53:10;;;;;;;;;;;1.30;99.90;;;1.75;100.00;98668.59;4892505;29;19931;-77
2021/12/10 04:55:38;;;;;;;;;;;3.20;99.90;;;1.77;100.00;98662.50;4893605;29;19931;-76
2021/12/10 04:58:06;;;;;;;;;;;1.00;99.90;;;1.74;100.00;98653.91;4877386;29;20578;-77
2021/12/10 05:00:38;;;;;;;;;;;1.40;99.90;;;1.70;100.00;98653.09;4892115;29;20027;-77
2021/12/10 05:03:06;;;;;;;;;;;1.30;99.90;;;1.69;100.00;98644.47;4891265;29;19932;-77
2021/12/10 05:05:33;;;;;;;;;;;1.20;99.90;;;1.74;100.00;98643.53;4877986;29;19927;-76
2021/12/10 05:08:00;;;;;;;;;;;2.00;99.90;;;1.73;100.00;98640.13;4908693;29;20521;-77
2021/12/10 05:10:30;;;;;;;;;;;1.40;99.90;;;1.72;100.00;98624.56;4893347;29;19924;-77
2021/12/10 05:12:57;;;;;;;;;;;1.20;99.90;;;1.66;100.00;98638.47;4862067;29;19931;-76
2021/12/10 05:15:26;;;;;;;;;;;2.20;99.90;;;1.57;100.00;98639.47;4874655;29;19923;-77
2021/12/10 05:17:54;;;;;;;;;;;1.40;99.90;;;1.54;100.00;98634.34;4880138;29;20039;-76
2021/12/10 05:20:41;;;;;;;;;;;1.30;99.90;;;1.53;100.00;98638.66;4861764;29;19976;-77
2021/12/10 05:23:11;;;;;;;;;;;2.00;99.90;;;1.57;100.00;98636.88;4869832;29;19931;-76
2021/12/10 05:25:38;;;;;;;;;;;1.30;99.90;;;1.54;100.00;98635.19;4867741;29;19967;-76
2021/12/10 05:28:05;;;;;;;;;;;4.00;99.90;;;1.49;100.00;98630.97;4874058;29;19928;-77
2021/12/10 05:30:32;;;;;;;;;;;1.70;99.90;;;1.50;100.00;98630.94;4874056;29;19935;-74
2021/12/10 05:33:01;;;;;;;;;;;1.10;99.90;;;1.51;100.00;98622.28;4876528;29;19927;-79
2021/12/10 05:35:33;;;;;;;;;;;3.30;99.90;;;1.46;100.00;98610.25;4862372;29;19934;-78
2021/12/10 05:38:00;;;;;;;;;;;1.20;99.90;;;1.44;100.00;98607.72;4871953;29;19923;-78
2021/12/10 05:40:27;;;;;;;;;;;2.70;99.90;;;1.43;100.00;98598.22;4856921;29;19924;-76
2021/12/10 05:43:11;;;;;;;;;;;1.10;99.90;;;1.42;100.00;98580.97;4849643;29;20007;-76
2021/12/10 05:45:42;;;;;;;;;;;1.20;99.90;;;1.49;100.00;98574.78;4860029;29;19923;-75
2021/12/10 05:48:10;;;;;;;;;;;1.20;99.90;;;1.39;100.00;98571.50;4875504;29;19927;-77
2021/12/10 05:50:37;;;;;;;;;;;2.70;99.90;;;1.46;100.00;98564.47;4864038;29;19943;-77
2021/12/10 05:53:06;;;;;;;;;;;0.90;99.90;;;1.44;100.00;98553.28;4867608;29;19927;-76
2021/12/10 05:55:34;;;;;;;;;;;1.10;99.90;;;1.47;100.00;98542.88;4870376;29;19928;-76
2021/12/10 05:58:01;;;;;;;;;;;3.60;99.90;;;1.51;100.00;98535.91;4866041;29;20271;-77
2021/12/10 06:00:39;;;;;;;;;;;2.20;99.90;;;1.55;100.00;98533.19;4850361;29;19996;-76
2021/12/10 06:03:06;;;;;;;;;;;1.20;99.90;;;1.58;100.00;98519.34;4871627;29;19959;-76
2021/12/10 06:05:35;;;;;;;;;;;3.20;99.90;;;1.58;100.00;98514.16;4871184;29;19928;-75
2021/12/10 06:08:03;;;;;;;;;;;3.40;99.90;;;1.64;100.00;98516.66;4870245;29;19924;-75
2021/12/10 06:10:34;;;;;;;;;;;2.40;99.90;;;1.61;100.00;98514.09;4857220;29;19935;-75
2021/12/10 06:13:01;;;;;;;;;;;1.30;99.90;;;1.68;100.00;98507.94;4870507;29;20342;-76
2021/12/10 06:15:29;;;;;;;;;;;4.20;99.90;;;1.72;100.00;98506.16;4871115;29;19924;-76
2021/12/10 06:17:56;;;;;;;;;;;1.30;99.90;;;1.74;100.00;98498.34;4869829;29;19928;-78
2021/12/10 06:20:30;;;;;;;;;;;2.50;99.90;;;1.75;100.00;98493.13;4854794;29;19935;-76
2021/12/10 06:22:59;;;;;;;;;;;1.10;99.90;;;1.80;100.00;98487.88;4856539;29;19924;-75
2021/12/10 06:25:28;;;;;;;;;;;1.40;99.90;;;1.81;100.00;98487.81;4886013;29;19936;-76
2021/12/10 06:27:55;;;;;;;;;;;1.40;99.90;;;1.84;100.00;98484.31;4839974;29;19928;-76
2021/12/10 06:30:26;;;;;;;;;;;1.50;99.90;;;1.85;100.00;98480.84;4854662;29;19927;-77
2021/12/10 06:32:54;;;;;;;;;;;1.40;99.90;;;1.83;100.00;98478.28;4854931;29;20040;-75
2021/12/10 06:35:23;;;;;;;;;;;2.10;99.90;;;1.83;100.00;98469.66;4855787;29;19938;-76
2021/12/10 06:37:53;;;;;;;;;;;3.60;99.90;;;1.90;100.00;98465.22;4854864;29;19928;-76
2021/12/10 06:40:27;;;;;;;;;;;3.90;99.90;;;1.90;100.00;98473.00;4854857;29;19927;-76
2021/12/10 06:42:54;;;;;;;;;;;1.60;99.90;;;1.93;100.00;98459.94;4838945;29;20278;-76
2021/12/10 06:45:28;;;;;;;;;;;3.90;99.90;;;1.95;100.00;98447.81;4870331;29;19935;-75
2021/12/10 06:47:58;;;;;;;;;;;1.50;99.90;;;1.97;100.00;98444.31;4855111;29;19934;-76
2021/12/10 06:50:29;;;;;;;;;;;3.70;99.90;;;2.09;100.00;98438.00;4855207;29;20462;-75
2021/12/10 06:53:00;;;;;;;;;;;2.50;99.90;;;2.05;100.00;98431.19;4866784;29;19931;-75
2021/12/10 06:55:29;;;;;;;;;;;1.60;99.90;;;2.08;100.00;98425.91;4855949;29;19927;-76
2021/12/10 06:57:57;;;;;;;;;;;1.60;99.90;;;2.15;100.00;98426.66;4873130;29;19924;-75
2021/12/10 07:00:32;;;;;;;;;;;1.90;99.90;;;2.15;100.00;98426.66;4873438;29;19927;-76
2021/12/10 07:03:00;;;;;;;;;;;1.80;99.90;;;2.21;100.00;98417.88;4888004;29;19928;-76
2021/12/10 07:05:27;;;;;;;;;;;1.90;99.90;;;2.23;100.00;98424.72;4856030;29;19943;-76
2021/12/10 07:07:54;;;;;;;;;;;1.80;99.90;;;2.30;100.00;98417.66;4877795;29;20393;-75
2021/12/10 07:10:21;;;;;;;;;;;1.70;99.90;;;2.39;100.00;98412.28;4874615;29;19974;-75
2021/12/10 07:12:48;;;;;;;;;;;2.10;99.90;;;2.31;100.00;98409.00;4887920;29;20433;-75
2021/12/10 07:15:16;;;;;;;;;;;1.80;99.90;;;2.37;100.00;98413.19;4877108;29;20016;-76
2021/12/10 07:17:49;;;;;;;;;;;2.00;99.90;;;2.38;100.00;98409.72;4879887;29;20034;-75
2021/12/10 07:20:19;;;;;;;;;;;1.90;99.90;;;2.37;100.00;98397.63;4876877;29;20437;-74
2021/12/10 07:22:47;;;;;;;;;;;1.80;99.90;;;2.37;100.00;98389.84;4875845;29;19953;-75
2021/12/10 07:25:14;;;;;;;;;;;4.30;99.90;;;2.32;100.00;98389.09;4876325;29;20030;-75
2021/12/10 07:27:41;;;;;;;;;;;4.40;99.90;;;2.40;100.00;98390.63;4857422;29;20047;-75
2021/12/10 07:30:09;;;;;;;;;;;1.90;99.90;;;2.40;100.00;98395.81;4873327;29;19928;-75
2021/12/10 07:32:36;;;;;;;;;;;1.70;99.90;;;2.39;100.00;98385.47;4872976;29;19928;-76
2021/12/10 07:35:05;;;;;;;;;;;2.20;99.90;;;2.39;100.00;98386.34;4858288;29;19932;-75
2021/12/10 07:37:36;;;;;;;;;;;2.00;99.90;;;2.43;100.00;98383.66;4857814;29;19967;-75
2021/12/10 07:40:06;;;;;;;;;;;2.10;99.90;;;2.38;100.00;98379.44;4873426;29;19932;-76
2021/12/10 07:42:33;;;;;;;;;;;2.10;99.90;;;2.41;100.00;98376.75;4857619;29;19968;-76
2021/12/10 07:45:02;;;;;;;;;;;2.00;99.90;;;2.46;100.00;98384.44;4862062;29;19964;-75
2021/12/10 07:47:34;;;;;;;;;;;1.90;99.90;;;2.49;100.00;98380.91;4846628;29;20346;-75
2021/12/10 07:50:02;;;;;;;;;;;2.10;99.90;;;2.49;100.00;98389.56;4857939;29;19924;-76
2021/12/10 07:52:34;;;;;;;;;;;3.30;99.90;;;2.56;100.00;98387.69;4857542;29;19928;-76
2021/12/10 07:55:06;;;;;;;;;;;2.40;99.90;;;2.48;100.00;98377.47;4857646;29;19924;-75
2021/12/10 07:57:33;;;;;;;;;;;2.80;99.90;;;2.56;100.00;98385.09;4872726;29;20031;-75
2021/12/10 08:00:08;;;;;;;;;;;2.10;99.90;;;2.56;100.00;98392.88;4879387;29;20584;-75
2021/12/10 08:02:40;;;;;;;;;;;2.00;99.90;;;2.50;100.00;98388.69;4890028;29;20313;-75
2021/12/10 08:05:08;;;;;;;;;;;1.90;99.90;;;2.57;100.00;98386.78;4867155;29;19947;-75
2021/12/10 08:07:35;;;;;;;;;;;2.10;99.90;;;2.60;100.00;98394.50;4859790;29;19956;-75
2021/12/10 08:10:04;;;;;;;;;;;2.20;99.90;;;2.62;100.00;98390.13;4856892;29;19955;-75
2021/12/10 08:12:31;;;;;;;;;;;2.20;99.90;;;2.66;100.00;98391.78;4872264;29;19934;-75
2021/12/10 08:14:58;;;;;;;;;;;4.10;99.90;;;2.75;100.00;98398.50;4872617;29;19935;-76
2021/12/10 08:17:26;;;;;;;;;;;3.40;99.90;;;2.77;100.00;98398.44;4871179;29;19955;-75
2021/12/10 08:19:53;;;;;;;;;;;2.10;99.90;;;2.86;100.00;98390.44;4841647;29;20436;-75
2021/12/10 08:22:20;;;;;;;;;;;3.80;99.90;;;2.86;100.00;98400.84;4841560;29;19928;-75
2021/12/10 08:24:47;;;;;;;;;;;2.30;99.90;;;3.02;100.00;98390.91;4856869;29;19923;-75
2021/12/10 08:27:14;;;;;;;;;;;2.50;99.90;;;3.02;100.00;98393.50;4862615;29;19934;-75
2021/12/10 08:29:44;;;;;;;;;;;2.40;99.90;;;2.95;100.00;98395.41;4871990;29;19924;-74
2021/12/10 08:32:19;;;;;;;;;;;2.50;99.90;;;3.01;100.00;98383.16;4856415;29;19924;-76
2021/12/10 08:34:50;;;;;;;;;;;2.60;99.90;;;3.07;100.00;98389.06;4874834;29;19928;-76
2021/12/10 08:37:17;;;;;;;;;;;2.70;99.90;;;3.15;100.00;98393.19;4874714;29;19924;-76
2021/12/10 08:39:44;;;;;;;;;;;2.70;99.90;;;3.18;100.00;98380.13;4860151;29;19931;-76
2021/12/10 08:42:13;;;;;;;;;;;3.40;99.90;;;3.22;100.00;98386.97;4860194;29;19923;-77
2021/12/10 08:44:42;;;;;;;;;;;2.70;99.90;;;3.26;100.00;98381.63;4875587;29;19928;-76
2021/12/10 08:47:12;;;;;;;;;;;5.50;99.90;;;3.33;100.00;98378.88;4860545;29;19934;-76
2021/12/10 08:49:40;;;;;;;;;;;2.90;99.90;;;3.36;100.00;98379.66;4877686;29;19930;-77
2021/12/10 08:52:08;;;;;;;;;;;2.90;99.90;;;3.39;100.00;98371.78;4860719;29;19924;-76
2021/12/10 08:54:37;;;;;;;;;;;2.90;99.90;;;3.45;100.00;98367.28;4875759;29;20022;-77
2021/12/10 08:57:05;;;;;;;;;;;3.00;99.90;;;3.51;100.00;98372.31;4860361;29;20026;-77
2021/12/10 08:59:34;;;;;;;;;;;3.00;99.90;;;3.55;100.00;98367.00;4875634;29;20465;-76
2021/12/10 09:02:19;;;;;;;;;;;3.00;99.90;;;3.60;100.00;98353.88;4875952;29;19931;-77
2021/12/10 09:04:46;;;;;;;;;;;3.90;99.90;;;3.67;100.00;98349.34;4875713;29;19924;-76
2021/12/10 09:07:15;;;;;;;;;;;3.10;99.90;;;3.72;100.00;98344.88;4860490;29;19931;-76
2021/12/10 09:09:45;;;;;;;;;;;3.10;99.90;;;3.69;100.00;98337.16;4893689;29;20019;-76
2021/12/10 09:12:19;;;;;;;;;;;3.30;99.90;;;3.83;100.00;98322.00;4879252;29;19982;-77
2021/12/10 09:14:50;;;;;;;;;;;3.60;99.90;;;3.89;100.00;98323.56;4893978;29;19934;-76
2021/12/10 09:17:23;;;;;;;;;;;5.10;99.90;;;3.90;100.00;98317.47;4895216;29;19923;-76
2021/12/10 09:19:59;;;;;;;;;;;3.40;99.90;;;3.91;100.00;98313.13;4894071;29;19970;-77
2021/12/10 09:22:27;;;;;;;;;;;5.30;99.90;;;3.97;100.00;98315.53;4878642;29;20010;-76
2021/12/10 09:24:56;;;;;;;;;;;4.80;99.90;;;3.99;100.00;98311.13;4893624;29;20001;-77
2021/12/10 09:27:24;;;;;;;;;;;3.50;99.90;;;4.00;100.00;98317.22;4893593;29;20041;-76
2021/12/10 09:29:53;;;;;;;;;;;3.70;99.90;;;4.06;100.00;98322.22;4862718;29;19923;-76
2021/12/10 09:32:23;;;;;;;;;;;3.60;99.90;;;4.09;100.00;98322.13;4895543;29;19966;-75
2021/12/10 09:34:51;;;;;;;;;;;5.60;99.90;;;4.13;100.00;98318.50;4894152;29;20018;-76
2021/12/10 09:37:19;;;;;;;;;;;3.60;99.90;;;4.19;100.00;98320.09;4893486;29;20362;-75
2021/12/10 09:40:06;;;;;;;;;;;3.60;99.90;;;4.13;100.00;98323.72;4876770;29;19924;-76
2021/12/10 09:42:33;;;;;;;;;;;5.50;99.90;;;4.22;100.00;98317.41;4870594;29;20095;-76
2021/12/10 09:45:04;;;;;;;;;;;3.80;99.90;;;4.24;100.00;98316.44;4870816;29;20409;-76
2021/12/10 09:47:31;;;;;;;;;;;3.80;99.90;;;4.27;100.00;98315.50;4855802;29;19928;-76
2021/12/10 09:49:58;;;;;;;;;;;5.30;99.90;;;4.33;100.00;98322.28;4855730;29;19928;-76
2021/12/10 09:52:27;;;;;;;;;;;5.40;99.90;;;4.26;100.00;98319.84;4870946;29;19928;-76
2021/12/10 09:54:56;;;;;;;;;;;5.60;99.90;;;4.46;100.00;98309.72;4857829;29;19967;-76
2021/12/10 09:57:30;;;;;;;;;;;3.90;99.90;;;4.43;100.00;98300.22;4839858;29;19932;-76
2021/12/10 10:00:31;;;;;;;;;;;5.00;99.90;;;4.52;100.00;98306.91;4839118;29;20070;-75
2021/12/10 10:03:00;;;;;;;;;;;4.10;99.90;;;4.51;100.00;98303.44;4859569;29;19935;-76
2021/12/10 10:05:29;;;;;;;;;;;3.90;99.90;;;4.54;100.00;98305.94;4875140;29;20030;-75
2021/12/10 10:07:59;;;;;;;;;;;4.70;99.90;;;4.56;100.00;98302.44;4865624;29;20308;-76
2021/12/10 10:10:28;;;;;;;;;;;3.90;99.90;;;4.59;100.00;98295.38;4872637;29;19924;-76
2021/12/10 10:12:57;;;;;;;;;;;4.00;99.90;;;4.63;100.00;98302.19;4857380;29;20004;-75
2021/12/10 10:15:30;;;;;;;;;;;4.10;99.90;;;4.61;100.00;98306.59;4873062;29;19983;-76
2021/12/10 10:17:59;;;;;;;;;;;4.20;99.90;;;4.66;100.00;98306.47;4872421;29;19928;-75
2021/12/10 10:20:30;;;;;;;;;;;4.10;99.90;;;4.67;100.00;98308.16;4872962;29;19924;-75
2021/12/10 10:22:57;;;;;;;;;;;4.10;99.90;;;4.66;100.00;98303.84;4872328;29;19924;-75
2021/12/10 10:25:26;;;;;;;;;;;4.20;99.90;;;4.65;100.00;98296.94;4873117;29;19963;-75
2021/12/10 10:27:53;;;;;;;;;;;4.20;99.90;;;4.54;100.00;98281.69;4872929;29;20461;-76
2021/12/10 10:30:30;;;;;;;;;;;5.10;99.90;;;4.55;100.00;98288.59;4875417;29;19924;-76
2021/12/10 10:33:01;;;;;;;;;;;4.50;99.90;;;4.57;100.00;98280.69;4877065;29;19930;-75
2021/12/10 10:35:33;;;;;;;;;;;4.10;99.90;;;4.54;100.00;98269.50;4874135;29;19927;-76
2021/12/10 10:38:01;;;;;;;;;;;4.00;99.90;;;4.57;100.00;98259.88;4873853;29;20497;-76
2021/12/10 10:40:34;;;;;;;;;;;4.10;99.90;;;4.56;100.00;98268.59;4874918;29;19927;-75
2021/12/10 10:43:02;;;;;;;;;;;4.10;99.90;;;4.57;100.00;98259.88;4878082;29;20026;-76
2021/12/10 10:45:33;;;;;;;;;;;4.00;99.90;;;4.62;100.00;98255.38;4877820;29;19927;-76
2021/12/10 10:48:00;;;;;;;;;;;4.40;99.90;;;4.66;100.00;98259.56;4879279;29;20022;-76
2021/12/10 10:50:36;;;;;;;;;;;4.40;99.90;;;4.67;100.00;98253.47;4877796;29;19924;-75
2021/12/10 10:53:09;;;;;;;;;;;4.20;99.90;;;4.68;100.00;98256.03;4877359;29;20026;-76
2021/12/10 10:55:58;;;;;;;;;;;4.20;99.90;;;4.67;100.00;98248.25;4862095;29;19924;-76
2021/12/10 10:58:30;;;;;;;;;;;6.50;99.90;;;4.75;100.00;98248.81;4898982;29;19923;-75
2021/12/10 11:01:00;;;;;;;;;;;5.10;99.90;;;4.82;100.00;98249.47;4878007;29;19959;-75
2021/12/10 11:04:01;;;;;;;;;;;4.30;99.90;;;4.87;100.00;98239.75;4859995;29;20006;-75
2021/12/10 11:06:30;;;;;;;;;;;4.30;99.90;;;4.97;100.00;98233.28;4858685;29;19974;-76
2021/12/10 11:09:13;;;;;;;;;;;4.30;99.90;;;4.96;100.00;98228.16;4874103;29;20323;-75
2021/12/10 11:12:06;;;;;;;;;;;2.50;99.90;;;5.03;100.00;98228.78;4859932;29;19971;-75
2021/12/10 11:14:53;;;;;;;;;;;4.50;99.90;;;5.07;100.00;98230.38;4854659;29;20426;-75
2021/12/10 11:17:31;;;;;;;;;;;4.50;99.90;;;5.10;100.00;98225.91;4863884;29;19928;-76
2021/12/10 11:20:09;;;;;;;;;;;4.60;99.90;;;5.20;100.00;98222.94;4843642;29;19935;-75
2021/12/10 11:22:51;;;;;;;;;;;4.60;99.90;;;5.21;100.00;98222.03;4859490;29;19924;-75
2021/12/10 11:25:25;;;;;;;;;;;4.50;99.90;;;5.19;100.00;98222.09;4872924;29;19928;-75
2021/12/10 11:28:06;;;;;;;;;;;4.40;99.90;;;5.24;100.00;98220.16;4864817;29;19932;-77
2021/12/10 11:30:34;;;;;;;;;;;6.50;99.90;;;5.24;100.00;98201.91;4851777;29;20132;-76
2021/12/10 11:33:10;;;;;;;;;;;5.50;99.90;;;5.36;100.00;98211.03;4873073;29;19970;-76
2021/12/10 11:35:42;;;;;;;;;;;4.60;99.90;;;5.33;100.00;98210.31;4858071;29;19988;-76
2021/12/10 11:38:13;;;;;;;;;;;4.70;99.90;;;5.34;100.00;98212.84;4874618;29;19928;-78
2021/12/10 11:40:45;;;;;;;;;;;5.70;99.90;;;5.42;100.00;98209.13;4860519;29;20046;-77
2021/12/10 11:48:47;;;;;;;;;;;4.90;99.90;;;5.46;100.00;98206.31;4888538;29;19927;-77
2021/12/10 11:51:20;;;;;;;;;;;4.90;99.90;;;5.46;100.00;98208.94;4876212;29;19932;-76
2021/12/10 11:53:52;;;;;;;;;;;4.80;99.90;;;5.56;100.00;98211.19;4877824;29;19935;-77